KOBE/OBE METAR and TAF weather

Enter ICAO airport designator
Station Type Date Time Source
KOBE METAR 2019/06/19 06:35 UTC NOAA

KOBE 190635Z AUTO 00000KT 10SM CLR 22/21 A3003 RMK AO2 LTG DSNT NW


Station Type Date Time Source
KOBE Decoded METAR 2019/06/19 06:35 UTC NOAA

Okeechobee County Airport, FL, United States (KOBE) 27-15-60N 080-51-02W
Jun 19, 2019 - 02:35 AM EDT / 2019.06.19 0635 UTC
Wind: Calm:0
Visibility: 10 mile(s):0
Sky conditions: clear
Weather: Lightning observed
Temperature: 71 F (22 C)
Dew Point: 69 F (21 C)
Relative Humidity: 94%
Pressure (altimeter): 30.03 in. Hg (1016 hPa)
ob: KOBE 190635Z AUTO 00000KT 10SM CLR 22/21 A3003 RMK AO2 LTG DSNT NW
cycle: 6

Station Type Date Time Source
KOBE TAF UTC NOAA

Error!

Example: see airport list